Time;durP1;ratioP1;P1;durP2;ratioP2;P2;SDS_P1;SDS_P2;PMS_P1;PMS_P2;Temp;Humidity;BMP_temperature;BMP_pressure;BME280_temperature;BME280_humidity;BME280_pressure;Samples;Min_cycle;Max_cycle;Signal;HPM_P1;HPM_P2
2023/03/05 00:01:09;;;;;;;22.10;8.47;;;;;;;;;;10395069;28;20044;-79
2023/03/05 00:06:15;;;;;;;35.67;11.90;;;;;;;;;;10410413;28;20056;-79
2023/03/05 00:11:20;;;;;;;22.80;8.50;;;;;;;;;;10397304;28;20041;-79
2023/03/05 00:16:33;;;;;;;29.97;10.60;;;;;;;;;;10407555;28;20132;-81
2023/03/05 00:21:38;;;;;;;28.63;8.83;;;;;;;;;;10397188;28;20042;-79
2023/03/05 00:32:10;;;;;;;28.70;9.47;;;;;;;;;;10394704;28;20557;-79
2023/03/05 00:37:16;;;;;;;26.93;8.03;;;;;;;;;;10400647;28;20038;-78
2023/03/05 00:42:22;;;;;;;16.60;5.83;;;;;;;;;;10408605;28;20053;-78
2023/03/05 00:47:27;;;;;;;9.37;4.10;;;;;;;;;;10388564;28;20127;-80
2023/03/05 00:52:39;;;;;;;23.73;7.97;;;;;;;;;;10395857;28;20037;-79
2023/03/05 00:57:44;;;;;;;24.10;8.27;;;;;;;;;;10394968;28;20472;-77
2023/03/05 01:02:59;;;;;;;24.73;9.37;;;;;;;;;;10407449;28;20125;-77
2023/03/05 01:08:07;;;;;;;34.83;12.67;;;;;;;;;;10390389;28;20108;-76
2023/03/05 01:13:19;;;;;;;27.00;10.07;;;;;;;;;;10397537;28;20076;-78
2023/03/05 01:18:28;;;;;;;;;;;;;;;;;;10400867;28;20042;-77
2023/03/05 01:23:37;;;;;;;27.17;9.13;;;;;;;;;;10389947;28;19921;-77
2023/03/05 01:28:42;;;;;;;18.27;6.90;;;;;;;;;;10381182;28;20104;-76
2023/03/05 01:33:59;;;;;;;19.20;6.63;;;;;;;;;;10381709;28;20526;-78
2023/03/05 01:39:24;;;;;;;33.57;10.40;;;;;;;;;;10407062;28;20115;-79
2023/03/05 01:44:31;;;;;;;30.90;10.07;;;;;;;;;;10416243;28;20124;-76
2023/03/05 01:55:03;;;;;;;35.93;10.00;;;;;;;;;;10409986;28;20041;-79
2023/03/05 02:00:12;;;;;;;14.30;6.00;;;;;;;;;;10410706;28;20045;-79
2023/03/05 02:05:35;;;;;;;24.47;7.87;;;;;;;;;;10421619;28;20041;-78
2023/03/05 02:10:43;;;;;;;33.53;11.35;;;;;;;;;;10412508;28;20664;-78
2023/03/05 02:15:48;;;;;;;23.47;8.10;;;;;;;;;;10396404;28;20099;-77
2023/03/05 02:20:55;;;;;;;22.90;8.97;;;;;;;;;;10398773;28;20067;-77
2023/03/05 02:26:04;;;;;;;29.47;10.67;;;;;;;;;;10415910;28;20140;-78
2023/03/05 02:31:10;;;;;;;32.60;9.23;;;;;;;;;;10395603;28;20057;-77
2023/03/05 02:36:17;;;;;;;27.60;9.43;;;;;;;;;;10405890;28;20494;-78
2023/03/05 02:41:28;;;;;;;29.57;8.40;;;;;;;;;;10383446;28;20052;-79
2023/03/05 02:46:35;;;;;;;17.63;6.80;;;;;;;;;;10401740;28;20130;-80
2023/03/05 02:51:46;;;;;;;28.50;9.07;;;;;;;;;;10392906;28;20079;-79
2023/03/05 02:56:57;;;;;;;22.03;6.80;;;;;;;;;;10383119;28;20048;-78
2023/03/05 03:02:03;;;;;;;28.40;9.53;;;;;;;;;;10403158;28;20412;-80
2023/03/05 03:07:17;;;;;;;42.37;11.23;;;;;;;;;;10403273;28;20449;-77
2023/03/05 03:12:22;;;;;;;27.53;8.97;;;;;;;;;;10409784;28;20068;-78
2023/03/05 03:17:39;;;;;;;35.00;11.47;;;;;;;;;;10397128;28;20459;-79
2023/03/05 03:22:48;;;;;;;32.27;9.80;;;;;;;;;;10403898;28;20518;-78
2023/03/05 03:28:01;;;;;;;19.43;8.13;;;;;;;;;;10396805;28;20584;-79
2023/03/05 03:33:10;;;;;;;16.47;6.17;;;;;;;;;;10401475;28;20060;-79
2023/03/05 03:38:13;;;;;;;28.55;9.82;;;;;;;;;;10397437;28;20090;-79
2023/03/05 03:43:23;;;;;;;28.97;7.47;;;;;;;;;;10400925;28;20048;-79
2023/03/05 03:48:28;;;;;;;15.63;4.67;;;;;;;;;;10398194;28;20143;-78
2023/03/05 03:53:37;;;;;;;20.37;5.63;;;;;;;;;;10392753;28;20044;-78
2023/03/05 03:58:58;;;;;;;21.50;6.13;;;;;;;;;;10401108;28;20037;-79
2023/03/05 04:04:07;;;;;;;26.17;8.00;;;;;;;;;;10403052;28;20328;-79
2023/03/05 04:09:17;;;;;;;26.23;9.57;;;;;;;;;;10386218;28;20130;-78
2023/03/05 04:14:25;;;;;;;28.33;8.93;;;;;;;;;;10392377;28;20254;-80
2023/03/05 04:19:29;;;;;;;15.93;5.23;;;;;;;;;;10391614;28;20041;-78
2023/03/05 04:24:39;;;;;;;15.27;6.30;;;;;;;;;;10403790;28;20061;-78
2023/03/05 04:29:59;;;;;;;20.77;7.27;;;;;;;;;;10393708;28;20053;-78
2023/03/05 04:35:04;;;;;;;32.80;9.80;;;;;;;;;;10389109;28;20050;-79
2023/03/05 04:40:18;;;;;;;21.65;6.35;;;;;;;;;;10393814;28;20044;-78
2023/03/05 04:45:26;;;;;;;26.23;8.93;;;;;;;;;;10391960;28;20077;-78
2023/03/05 04:50:44;;;;;;;23.57;8.47;;;;;;;;;;10394005;28;20124;-78
2023/03/05 04:55:52;;;;;;;20.47;7.50;;;;;;;;;;10400348;28;20112;-78
2023/03/05 05:01:10;;;;;;;29.77;8.13;;;;;;;;;;10387225;28;20132;-78
2023/03/05 05:06:25;;;;;;;20.47;6.53;;;;;;;;;;10402180;28;20045;-77
2023/03/05 05:11:30;;;;;;;26.17;9.32;;;;;;;;;;10391050;28;20037;-77
2023/03/05 05:16:51;;;;;;;20.30;6.73;;;;;;;;;;10413188;28;20045;-77
2023/03/05 05:21:59;;;;;;;23.77;6.37;;;;;;;;;;10409097;28;20491;-83
2023/03/05 05:27:11;;;;;;;30.03;9.23;;;;;;;;;;10390589;28;20068;-79
2023/03/05 05:32:16;;;;;;;26.00;8.10;;;;;;;;;;10398371;28;20037;-78
2023/03/05 05:37:23;;;;;;;26.47;8.30;;;;;;;;;;10402029;28;20033;-79
2023/03/05 05:42:36;;;;;;;32.57;10.13;;;;;;;;;;10407009;28;20128;-80
2023/03/05 05:47:50;;;;;;;24.87;7.40;;;;;;;;;;10396830;28;20049;-78
2023/03/05 05:52:57;;;;;;;38.53;12.47;;;;;;;;;;10396474;28;20117;-81
2023/03/05 05:58:03;;;;;;;17.93;5.90;;;;;;;;;;10407438;28;20461;-80
2023/03/05 06:03:20;;;;;;;16.37;5.80;;;;;;;;;;10403295;28;20387;-79
2023/03/05 06:08:36;;;;;;;20.60;6.57;;;;;;;;;;10404236;28;20045;-79
2023/03/05 06:13:47;;;;;;;27.10;7.83;;;;;;;;;;10397477;28;20130;-79
2023/03/05 06:18:53;;;;;;;39.97;10.67;;;;;;;;;;10398234;28;20053;-78
2023/03/05 06:24:02;;;;;;;36.13;12.07;;;;;;;;;;10407185;28;20038;-80
2023/03/05 06:29:13;;;;;;;23.47;8.33;;;;;;;;;;10392523;28;20046;-79
2023/03/05 06:34:27;;;;;;;34.20;9.27;;;;;;;;;;10405205;28;20092;-79
2023/03/05 06:39:32;;;;;;;32.10;8.40;;;;;;;;;;10379128;28;20426;-77
2023/03/05 06:44:40;;;;;;;28.55;9.90;;;;;;;;;;10407698;28;20129;-82
2023/03/05 06:49:51;;;;;;;29.83;10.03;;;;;;;;;;10407193;28;20099;-80
2023/03/05 06:54:58;;;;;;;25.47;8.03;;;;;;;;;;10403016;28;20230;-78
2023/03/05 07:00:03;;;;;;;24.98;7.03;;;;;;;;;;10401644;28;20125;-79
2023/03/05 07:05:20;;;;;;;14.47;4.87;;;;;;;;;;10405457;28;20057;-79
2023/03/05 07:10:29;;;;;;;;;;;;;;;;;;10405318;28;20113;-77
2023/03/05 07:15:34;;;;;;;29.90;9.63;;;;;;;;;;10405566;28;20016;-78
2023/03/05 07:20:43;;;;;;;14.10;5.60;;;;;;;;;;10410615;28;20057;-78
2023/03/05 07:25:54;;;;;;;32.70;9.00;;;;;;;;;;10409906;28;20034;-79
2023/03/05 07:31:04;;;;;;;30.93;10.03;;;;;;;;;;10396637;28;20524;-80
2023/03/05 07:36:16;;;;;;;25.20;7.43;;;;;;;;;;10390049;28;20407;-78
2023/03/05 07:41:24;;;;;;;28.57;8.30;;;;;;;;;;10398390;28;20120;-76
2023/03/05 07:46:35;;;;;;;25.93;8.57;;;;;;;;;;10395280;28;20433;-78
2023/03/05 07:51:44;;;;;;;35.97;10.07;;;;;;;;;;10392022;28;20091;-79
2023/03/05 07:56:49;;;;;;;39.90;12.57;;;;;;;;;;10403409;28;20132;-79
2023/03/05 08:01:59;;;;;;;22.40;6.60;;;;;;;;;;10394656;28;20055;-79
2023/03/05 08:07:05;;;;;;;22.33;7.63;;;;;;;;;;10411330;28;20560;-79
2023/03/05 08:12:11;;;;;;;19.07;7.60;;;;;;;;;;10396294;28;20034;-79
2023/03/05 08:17:24;;;;;;;33.83;10.73;;;;;;;;;;10399168;28;20131;-80
2023/03/05 08:22:32;;;;;;;24.43;8.47;;;;;;;;;;10396750;28;20051;-78
2023/03/05 08:27:41;;;;;;;22.70;6.33;;;;;;;;;;10391687;28;20057;-78
2023/03/05 08:32:50;;;;;;;34.72;10.38;;;;;;;;;;10390986;28;20154;-76
2023/03/05 08:38:08;;;;;;;22.57;7.57;;;;;;;;;;10393081;28;20045;-77
2023/03/05 08:43:25;;;;;;;24.00;7.03;;;;;;;;;;10398898;28;20026;-79
2023/03/05 08:48:49;;;;;;;32.92;10.45;;;;;;;;;;10404269;28;20466;-78
2023/03/05 08:53:59;;;;;;;37.03;10.25;;;;;;;;;;10402621;28;20061;-77
2023/03/05 08:59:09;;;;;;;30.75;10.38;;;;;;;;;;10402894;28;20045;-77
2023/03/05 09:04:17;;;;;;;35.90;12.43;;;;;;;;;;10400861;28;20053;-80
2023/03/05 09:09:24;;;;;;;24.05;7.03;;;;;;;;;;10400486;28;20046;-77
2023/03/05 09:14:42;;;;;;;29.38;9.32;;;;;;;;;;10392638;28;20048;-79
2023/03/05 09:19:51;;;;;;;25.20;8.00;;;;;;;;;;10399219;28;20041;-78
2023/03/05 09:24:57;;;;;;;34.13;10.63;;;;;;;;;;10392027;28;20506;-78
2023/03/05 09:30:07;;;;;;;35.75;10.55;;;;;;;;;;10399435;28;20127;-79
2023/03/05 09:35:20;;;;;;;22.50;7.07;;;;;;;;;;10394509;28;20468;-78
2023/03/05 09:40:31;;;;;;;28.10;8.88;;;;;;;;;;10404452;28;20042;-78
2023/03/05 09:45:38;;;;;;;14.07;4.95;;;;;;;;;;10388688;28;20179;-77
2023/03/05 09:50:44;;;;;;;19.45;7.63;;;;;;;;;;10395894;28;20077;-78
2023/03/05 09:55:58;;;;;;;27.55;8.70;;;;;;;;;;10391470;28;20130;-78
2023/03/05 10:01:07;;;;;;;31.00;9.35;;;;;;;;;;10408776;28;20049;-78
2023/03/05 10:06:21;;;;;;;33.90;9.88;;;;;;;;;;10414784;28;20064;-77
2023/03/05 10:11:55;;;;;;;32.17;10.68;;;;;;;;;;10398557;28;20041;-77
2023/03/05 10:17:23;;;;;;;38.40;11.07;;;;;;;;;;10398923;28;20048;-77
2023/03/05 10:22:29;;;;;;;19.05;6.95;;;;;;;;;;10407830;28;20395;-78
2023/03/05 10:27:59;;;;;;;20.77;6.50;;;;;;;;;;10397060;28;20488;-77
2023/03/05 10:33:21;;;;;;;25.10;8.75;;;;;;;;;;10392830;28;20040;-78
2023/03/05 10:38:46;;;;;;;35.70;10.82;;;;;;;;;;10389760;28;20517;-78
2023/03/05 10:43:53;;;;;;;32.33;11.25;;;;;;;;;;10386795;28;20053;-77
2023/03/05 10:48:59;;;;;;;28.48;9.07;;;;;;;;;;10382814;28;20103;-79
2023/03/05 10:54:16;;;;;;;30.53;10.30;;;;;;;;;;10391880;28;20129;-79
2023/03/05 10:59:32;;;;;;;33.20;10.88;;;;;;;;;;10386951;28;20139;-78
2023/03/05 11:04:42;;;;;;;25.25;6.85;;;;;;;;;;10380477;28;20076;-78
2023/03/05 11:10:04;;;;;;;31.20;10.23;;;;;;;;;;10388809;28;20061;-78
2023/03/05 11:15:25;;;;;;;36.83;11.88;;;;;;;;;;10393181;28;20494;-79
2023/03/05 11:20:31;;;;;;;31.92;10.55;;;;;;;;;;10430475;28;20055;-78
2023/03/05 11:26:04;;;;;;;28.77;8.80;;;;;;;;;;10478159;27;20452;-78
2023/03/05 11:31:22;;;;;;;37.60;11.65;;;;;;;;;;10440600;28;20131;-78
2023/03/05 11:36:26;;;;;;;31.05;10.13;;;;;;;;;;10444125;28;20136;-77
2023/03/05 11:41:34;;;;;;;35.90;11.20;;;;;;;;;;10441696;28;20048;-77
2023/03/05 11:46:40;;;;;;;30.15;10.10;;;;;;;;;;10447557;28;20072;-77
2023/03/05 11:51:45;;;;;;;30.00;9.80;;;;;;;;;;10442752;28;20049;-77
2023/03/05 11:56:51;;;;;;;38.30;12.15;;;;;;;;;;10447231;28;20056;-77
2023/03/05 12:01:57;;;;;;;29.83;8.95;;;;;;;;;;10441543;28;20033;-77
2023/03/05 12:07:02;;;;;;;30.17;8.60;;;;;;;;;;10447464;28;20045;-78
2023/03/05 12:12:12;;;;;;;23.15;7.72;;;;;;;;;;10446735;28;20040;-77
2023/03/05 12:17:20;;;;;;;31.73;9.07;;;;;;;;;;10437050;28;20083;-78
2023/03/05 12:22:26;;;;;;;23.08;9.13;;;;;;;;;;10436549;28;20056;-79
2023/03/05 12:27:35;;;;;;;25.08;8.60;;;;;;;;;;10443602;28;20131;-79
2023/03/05 12:32:59;;;;;;;22.95;9.45;;;;;;;;;;10448561;28;20406;-77
2023/03/05 12:38:04;;;;;;;22.92;7.88;;;;;;;;;;10426790;28;20122;-77
2023/03/05 12:43:29;;;;;;;23.70;7.97;;;;;;;;;;10425577;28;20037;-78
2023/03/05 12:48:43;;;;;;;26.58;9.40;;;;;;;;;;10419242;28;20454;-82
2023/03/05 12:53:49;;;;;;;26.07;9.27;;;;;;;;;;10418616;28;20282;-79
2023/03/05 12:58:57;;;;;;;20.95;7.63;;;;;;;;;;10401815;28;20053;-78
2023/03/05 13:04:00;;;;;;;24.45;9.20;;;;;;;;;;10412992;28;20048;-80
2023/03/05 13:09:04;;;;;;;23.67;8.45;;;;;;;;;;10401954;28;20037;-78
2023/03/05 13:14:25;;;;;;;22.40;7.80;;;;;;;;;;10415265;28;20043;-79
2023/03/05 13:19:29;;;;;;;25.63;9.10;;;;;;;;;;10408137;28;20061;-79
2023/03/05 13:24:31;;;;;;;22.20;7.47;;;;;;;;;;10412183;28;20069;-79
2023/03/05 13:29:49;;;;;;;24.40;8.70;;;;;;;;;;10414319;28;20049;-79
2023/03/05 13:34:54;;;;;;;16.63;5.65;;;;;;;;;;10406033;28;21957;-79
2023/03/05 13:40:00;;;;;;;20.73;8.02;;;;;;;;;;10415923;28;20038;-77
2023/03/05 13:45:07;;;;;;;22.67;7.43;;;;;;;;;;10398887;28;20415;-77
2023/03/05 13:50:25;;;;;;;20.25;7.28;;;;;;;;;;10402183;28;20045;-77
2023/03/05 13:55:29;;;;;;;24.88;8.52;;;;;;;;;;10415574;28;20041;-77
2023/03/05 14:00:35;;;;;;;22.88;8.90;;;;;;;;;;10406785;28;20036;-77
2023/03/05 14:05:42;;;;;;;26.52;8.85;;;;;;;;;;10411206;28;20044;-77
2023/03/05 14:10:45;;;;;;;27.85;8.85;;;;;;;;;;10402360;28;20414;-78
2023/03/05 14:21:16;;;;;;;24.55;7.82;;;;;;;;;;10543718;27;20411;-78
2023/03/05 14:26:30;;;;;;;24.70;7.80;;;;;;;;;;10541561;28;20522;-79
2023/03/05 14:31:36;;;;;;;25.88;9.75;;;;;;;;;;10535490;28;20067;-85
2023/03/05 14:36:47;;;;;;;26.58;8.75;;;;;;;;;;10539748;28;20482;-78
2023/03/05 14:41:52;;;;;;;24.85;8.13;;;;;;;;;;10538182;28;20040;-80
2023/03/05 14:46:55;;;;;;;23.35;8.13;;;;;;;;;;10541142;28;20039;-79
2023/03/05 14:51:59;;;;;;;25.38;7.10;;;;;;;;;;10540101;28;20504;-80
2023/03/05 14:57:03;;;;;;;29.67;9.00;;;;;;;;;;10542298;27;20047;-80
2023/03/05 15:02:07;;;;;;;30.50;8.88;;;;;;;;;;10546927;28;20442;-76
2023/03/05 15:07:14;;;;;;;30.15;8.57;;;;;;;;;;10547932;28;20177;-76
2023/03/05 15:12:17;;;;;;;23.58;9.15;;;;;;;;;;10534155;28;20040;-78
2023/03/05 15:17:26;;;;;;;24.17;7.72;;;;;;;;;;10554724;28;20039;-78
2023/03/05 15:22:40;;;;;;;20.75;6.88;;;;;;;;;;10537542;28;20040;-78
2023/03/05 15:27:46;;;;;;;21.20;7.63;;;;;;;;;;10529863;28;20040;-78
2023/03/05 15:32:51;;;;;;;20.35;6.97;;;;;;;;;;10509824;28;20040;-76
2023/03/05 15:37:55;;;;;;;20.55;6.60;;;;;;;;;;10514458;28;20040;-78
2023/03/05 15:42:58;;;;;;;21.38;7.72;;;;;;;;;;10514698;28;20039;-78
2023/03/05 15:48:01;;;;;;;21.20;7.32;;;;;;;;;;10515149;28;20028;-76
2023/03/05 15:53:06;;;;;;;21.67;6.67;;;;;;;;;;10515877;28;20461;-79
2023/03/05 15:58:09;;;;;;;17.70;6.90;;;;;;;;;;10494447;28;20516;-77
2023/03/05 16:03:13;;;;;;;15.63;6.10;;;;;;;;;;10517431;28;20036;-78
2023/03/05 16:14:26;;;;;;;17.05;6.05;;;;;;;;;;10528599;28;20036;-78
2023/03/05 16:19:30;;;;;;;13.70;5.22;;;;;;;;;;10516945;28;20099;-77
2023/03/05 16:24:35;;;;;;;18.58;5.63;;;;;;;;;;10524976;28;20048;-78
2023/03/05 16:29:37;;;;;;;12.68;5.13;;;;;;;;;;10512961;28;20476;-76
2023/03/05 16:34:44;;;;;;;14.18;6.22;;;;;;;;;;10524008;28;20037;-77
2023/03/05 16:40:03;;;;;;;13.15;4.20;;;;;;;;;;10527989;28;20480;-79
2023/03/05 16:45:08;;;;;;;15.60;5.38;;;;;;;;;;10523373;28;20047;-78
2023/03/05 16:50:13;;;;;;;16.50;6.05;;;;;;;;;;10510371;28;20525;-78
2023/03/05 16:55:26;;;;;;;21.30;7.23;;;;;;;;;;10515873;28;20078;-78
2023/03/05 17:00:56;;;;;;;15.70;5.30;;;;;;;;;;10509033;28;20481;-79
2023/03/05 17:05:59;;;;;;;13.73;4.93;;;;;;;;;;10513339;28;20503;-78
2023/03/05 17:11:03;;;;;;;14.07;5.03;;;;;;;;;;10518410;28;20048;-77
2023/03/05 17:16:08;;;;;;;17.30;5.65;;;;;;;;;;10517940;28;20032;-76
2023/03/05 17:21:11;;;;;;;19.00;5.60;;;;;;;;;;10514395;28;20059;-76
2023/03/05 17:26:16;;;;;;;14.32;4.72;;;;;;;;;;10516538;28;20044;-78
2023/03/05 17:31:23;;;;;;;17.02;6.03;;;;;;;;;;10514397;28;20129;-77
2023/03/05 17:36:27;;;;;;;16.85;5.80;;;;;;;;;;10520433;28;20401;-77
2023/03/05 17:41:29;;;;;;;14.10;5.70;;;;;;;;;;10503192;28;20073;-78
2023/03/05 17:46:33;;;;;;;14.50;5.15;;;;;;;;;;10522798;28;20044;-76
2023/03/05 17:51:37;;;;;;;19.65;5.85;;;;;;;;;;10514685;28;20043;-77
2023/03/05 17:56:40;;;;;;;;;;;;;;;;;;10498334;28;20064;-77
2023/03/05 18:01:45;;;;;;;12.63;4.43;;;;;;;;;;10501684;28;19971;-77
2023/03/05 18:06:48;;;;;;;;;;;;;;;;;;10527531;28;20066;-77
2023/03/05 18:11:51;;;;;;;13.55;5.30;;;;;;;;;;10520448;28;19945;-78
2023/03/05 18:16:57;;;;;;;7.90;2.83;;;;;;;;;;10523945;28;20382;-78
2023/03/05 18:22:02;;;;;;;15.95;5.13;;;;;;;;;;10513804;28;20048;-79
2023/03/05 18:27:05;;;;;;;15.03;4.93;;;;;;;;;;10520918;28;20040;-79
2023/03/05 18:32:09;;;;;;;11.73;3.85;;;;;;;;;;10516253;28;20044;-79
2023/03/05 18:37:15;;;;;;;11.20;3.80;;;;;;;;;;10500097;28;20369;-78
2023/03/05 18:42:17;;;;;;;16.17;5.83;;;;;;;;;;10516307;28;20075;-77
2023/03/05 18:47:21;;;;;;;16.25;5.57;;;;;;;;;;10518875;28;20042;-78
2023/03/05 18:52:31;;;;;;;13.00;4.53;;;;;;;;;;10517931;28;20028;-79
2023/03/05 18:57:37;;;;;;;11.70;4.57;;;;;;;;;;10525613;28;20122;-78
2023/03/05 19:02:41;;;;;;;13.15;4.78;;;;;;;;;;10500360;28;20137;-78
2023/03/05 19:07:44;;;;;;;;;;;;;;;;;;10519889;28;20048;-77
2023/03/05 19:23:50;;;;;;;16.15;5.20;;;;;;;;;;10372915;28;20181;-78
2023/03/05 19:29:02;;;;;;;14.15;4.57;;;;;;;;;;10520496;28;20490;-79
2023/03/05 19:34:12;;;;;;;11.50;3.03;;;;;;;;;;10530827;28;20689;-76
2023/03/05 19:39:14;;;;;;;7.73;2.80;;;;;;;;;;10524228;28;20047;-77
2023/03/05 19:44:18;;;;;;;14.97;4.20;;;;;;;;;;10525989;28;20089;-78
2023/03/05 19:49:23;;;;;;;15.57;4.75;;;;;;;;;;10506816;28;20046;-77
2023/03/05 19:54:26;;;;;;;13.27;4.33;;;;;;;;;;10527256;28;20485;-78
2023/03/05 19:59:29;;;;;;;12.90;5.05;;;;;;;;;;10525355;28;20071;-77
2023/03/05 20:04:34;;;;;;;15.83;5.17;;;;;;;;;;10506493;28;20044;-77
2023/03/05 20:09:37;;;;;;;7.03;2.20;;;;;;;;;;10517296;28;20068;-77
2023/03/05 20:14:39;;;;;;;14.52;4.55;;;;;;;;;;10514685;28;20040;-76
2023/03/05 20:19:43;;;;;;;15.30;4.57;;;;;;;;;;10511742;28;20063;-77
2023/03/05 20:24:50;;;;;;;14.55;4.88;;;;;;;;;;10500323;28;20077;-79
2023/03/05 20:29:54;;;;;;;17.30;5.45;;;;;;;;;;10504168;28;20767;-77
2023/03/05 20:34:59;;;;;;;1.30;1.10;;;;;;;;;;10505561;28;20051;-77
2023/03/05 20:40:02;;;;;;;17.57;5.60;;;;;;;;;;10506776;28;20116;-78
2023/03/05 20:45:06;;;;;;;12.65;4.28;;;;;;;;;;10512348;28;20032;-77
2023/03/05 20:50:10;;;;;;;17.50;5.90;;;;;;;;;;10514197;28;20039;-77
2023/03/05 20:55:14;;;;;;;20.27;5.50;;;;;;;;;;10515675;28;20050;-76
2023/03/05 21:00:17;;;;;;;16.17;5.10;;;;;;;;;;10509427;28;20517;-78
2023/03/05 21:05:22;;;;;;;20.20;5.47;;;;;;;;;;10510986;28;20405;-77
2023/03/05 21:10:25;;;;;;;20.10;6.35;;;;;;;;;;10510032;28;20041;-77
2023/03/05 21:15:29;;;;;;;11.20;2.97;;;;;;;;;;10513855;28;20484;-79
2023/03/05 21:20:34;;;;;;;11.87;3.63;;;;;;;;;;10502766;28;20972;-78
2023/03/05 21:25:37;;;;;;;14.73;5.35;;;;;;;;;;10504998;28;20035;-78
2023/03/05 21:30:51;;;;;;;10.27;2.30;;;;;;;;;;10506763;28;20032;-78
2023/03/05 21:35:56;;;;;;;16.00;5.00;;;;;;;;;;10506031;28;20052;-79
2023/03/05 21:40:59;;;;;;;16.15;5.80;;;;;;;;;;10503361;28;20439;-78
2023/03/05 21:46:03;;;;;;;16.23;5.85;;;;;;;;;;10500987;28;20094;-79
2023/03/05 21:51:25;;;;;;;17.67;6.03;;;;;;;;;;10500991;28;20127;-80
2023/03/05 21:56:29;;;;;;;23.42;7.47;;;;;;;;;;10502632;28;20042;-80
2023/03/05 22:01:32;;;;;;;;;;;;;;;;;;10520990;28;20036;-77
2023/03/05 22:06:36;;;;;;;22.50;5.90;;;;;;;;;;10509212;28;19920;-77
2023/03/05 22:11:43;;;;;;;25.75;6.90;;;;;;;;;;10499922;28;20044;-77
2023/03/05 22:16:46;;;;;;;19.60;6.70;;;;;;;;;;10507102;28;20036;-79
2023/03/05 22:21:50;;;;;;;17.38;6.05;;;;;;;;;;10498683;28;20070;-78
2023/03/05 22:26:53;;;;;;;22.42;7.32;;;;;;;;;;10499574;28;20098;-78
2023/03/05 22:31:56;;;;;;;22.70;6.97;;;;;;;;;;10501126;28;20058;-79
2023/03/05 22:37:00;;;;;;;25.80;7.77;;;;;;;;;;10487509;28;20670;-77
2023/03/05 22:42:03;;;;;;;26.67;7.85;;;;;;;;;;10506708;28;20102;-79
2023/03/05 22:47:06;;;;;;;20.60;6.67;;;;;;;;;;10511441;28;20502;-80
2023/03/05 22:52:11;;;;;;;15.23;6.30;;;;;;;;;;10517294;28;20074;-77
2023/03/05 22:57:14;;;;;;;17.53;6.03;;;;;;;;;;10508912;28;20064;-75
2023/03/05 23:02:17;;;;;;;19.65;6.72;;;;;;;;;;10511094;28;20123;-77
2023/03/05 23:07:22;;;;;;;19.97;6.27;;;;;;;;;;10521356;28;20044;-77
2023/03/05 23:12:27;;;;;;;19.00;6.27;;;;;;;;;;10512239;28;20036;-78
2023/03/05 23:17:30;;;;;;;20.33;6.63;;;;;;;;;;10499479;28;20070;-77
2023/03/05 23:22:38;;;;;;;22.87;7.23;;;;;;;;;;10507208;28;20036;-77
2023/03/05 23:27:41;;;;;;;20.17;6.40;;;;;;;;;;10512919;28;20041;-77
2023/03/05 23:32:44;;;;;;;23.70;6.33;;;;;;;;;;10515637;28;20410;-78
2023/03/05 23:37:49;;;;;;;20.00;6.90;;;;;;;;;;10508390;28;20082;-76
2023/03/05 23:42:52;;;;;;;19.27;6.47;;;;;;;;;;10510028;28;20041;-76
2023/03/05 23:47:56;;;;;;;17.33;6.47;;;;;;;;;;10514017;28;20091;-77
2023/03/05 23:53:00;;;;;;;18.48;6.88;;;;;;;;;;10511127;28;20036;-77
2023/03/05 23:58:03;;;;;;;15.90;5.30;;;;;;;;;;10508286;28;20641;-77
